Time;durP1;ratioP1;P1;durP2;ratioP2;P2;SDS_P1;SDS_P2;PMS_P1;PMS_P2;Temp;Humidity;BMP_temperature;BMP_pressure;BME280_temperature;BME280_humidity;BME280_pressure;Samples;Min_cycle;Max_cycle;Signal;HPM_P1;HPM_P2
2021/05/31 00:01:25;;;;;;;4.25;2.10;;;;;;;11.18;92.24;99382.17;1641159;86;21095;-75
2021/05/31 00:03:52;;;;;;;5.67;2.35;;;;;;;11.18;92.13;99383.55;1635247;86;21620;-75
2021/05/31 00:06:18;;;;;;;5.42;2.08;;;;;;;11.16;91.94;99386.62;1658239;86;21130;-74
2021/05/31 00:08:46;;;;;;;6.47;2.25;;;;;;;11.14;92.01;99392.19;1653555;86;20918;-74
2021/05/31 00:11:13;;;;;;;3.65;1.98;;;;;;;11.13;91.88;99402.94;1654571;86;21031;-74
2021/05/31 00:13:41;;;;;;;2.40;2.08;;;;;;;11.11;91.65;99411.50;1647698;85;21705;-74
2021/05/31 00:16:08;;;;;;;4.03;2.20;;;;;;;11.09;91.39;99413.77;1644035;86;21071;-74
2021/05/31 00:18:36;;;;;;;3.65;2.37;;;;;;;11.10;91.42;99418.69;1662653;86;20954;-74
2021/05/31 00:21:05;;;;;;;9.10;2.60;;;;;;;11.10;91.37;99422.81;1654668;86;21604;-74
2021/05/31 00:23:31;;;;;;;2.90;2.10;;;;;;;11.07;90.77;99427.02;1658492;86;21116;-74
2021/05/31 00:25:58;;;;;;;6.40;2.95;;;;;;;11.07;90.52;99432.51;1645064;86;21486;-74
2021/05/31 00:28:26;;;;;;;9.60;2.25;;;;;;;11.05;90.44;99425.16;1649144;86;20951;-74
2021/05/31 00:30:53;;;;;;;3.25;2.33;;;;;;;11.04;90.26;99432.34;1655279;86;21604;-74
2021/05/31 00:33:21;;;;;;;4.45;2.22;;;;;;;11.03;90.92;99421.92;1649926;84;20989;-73
2021/05/31 00:35:49;;;;;;;3.52;1.90;;;;;;;11.06;91.32;99423.22;1649876;86;21560;-73
2021/05/31 00:38:15;;;;;;;3.30;2.00;;;;;;;11.06;91.41;99417.16;1653350;85;21022;-74
2021/05/31 00:40:42;;;;;;;4.72;1.80;;;;;;;11.06;91.42;99417.16;1642008;85;21434;-74
2021/05/31 00:43:09;;;;;;;3.95;1.80;;;;;;;11.05;91.36;99415.54;1652434;86;21057;-75
2021/05/31 00:45:36;;;;;;;6.40;1.95;;;;;;;11.04;91.18;99410.37;1652802;86;20946;-75
2021/05/31 00:48:02;;;;;;;5.62;2.25;;;;;;;11.01;91.08;99411.81;1652168;86;21056;-75
2021/05/31 00:50:28;;;;;;;5.53;2.10;;;;;;;11.01;91.04;99415.94;1656950;86;20927;-74
2021/05/31 00:52:56;;;;;;;5.33;2.05;;;;;;;10.99;91.06;99407.77;1649680;86;21110;-75
2021/05/31 00:55:22;;;;;;;4.80;2.20;;;;;;;10.96;90.97;99410.62;1653179;85;20955;-75
2021/05/31 00:57:50;;;;;;;3.58;1.98;;;;;;;10.94;90.96;99407.39;1655530;86;21528;-75
2021/05/31 01:00:17;;;;;;;8.03;2.17;;;;;;;10.91;90.99;99415.71;1654255;86;20942;-73
2021/05/31 01:02:43;;;;;;;7.70;2.20;;;;;;;10.86;90.68;99409.00;1659357;86;21530;-74
2021/05/31 01:05:11;;;;;;;8.30;2.15;;;;;;;10.83;90.90;99413.76;1655070;86;21629;-74
2021/05/31 01:07:44;;;;;;;3.77;2.15;;;;;;;10.80;90.96;99414.40;1653025;86;20924;-74
2021/05/31 01:10:25;;;;;;;6.12;2.08;;;;;;;10.79;91.11;99414.16;1655374;86;20895;-74
2021/05/31 01:13:12;;;;;;;7.28;1.80;;;;;;;10.79;91.27;99410.59;1673951;84;21030;-74
2021/05/31 01:15:55;;;;;;;7.42;1.90;;;;;;;10.76;91.36;99409.87;1644052;86;20959;-74
2021/05/31 01:18:33;;;;;;;6.00;1.95;;;;;;;10.73;91.56;99405.83;1647678;86;21195;-74
2021/05/31 01:21:26;;;;;;;11.12;2.37;;;;;;;10.70;91.63;99408.40;1647164;86;21524;-74
2021/05/31 01:24:07;;;;;;;10.35;2.40;;;;;;;10.69;91.74;99408.16;1646081;86;21642;-74
2021/05/31 01:26:49;;;;;;;4.60;1.98;;;;;;;10.66;91.81;99407.42;1657880;85;21664;-74
2021/05/31 01:29:16;;;;;;;3.62;2.05;;;;;;;10.60;92.04;99402.64;1608438;86;21071;-74
2021/05/31 01:31:50;;;;;;;5.00;1.90;;;;;;;10.59;92.30;99401.83;1646798;86;21096;-75
2021/05/31 01:34:23;;;;;;;6.37;2.10;;;;;;;10.59;92.53;99401.83;1637228;86;20899;-74
2021/05/31 01:37:04;;;;;;;3.90;2.05;;;;;;;10.58;92.73;99404.33;1637579;85;20987;-74
2021/05/31 01:39:33;;;;;;;4.47;2.00;;;;;;;10.58;92.83;99409.83;1650723;86;21056;-74
2021/05/31 01:41:59;;;;;;;5.85;2.22;;;;;;;10.55;92.62;99404.16;1652753;86;20946;-75
2021/05/31 01:44:26;;;;;;;5.20;2.00;;;;;;;10.53;92.85;99414.65;1658886;86;21862;-74
2021/05/31 01:46:54;;;;;;;3.12;2.12;;;;;;;10.54;92.99;99406.66;1661095;86;21007;-74
2021/05/31 01:49:20;;;;;;;3.12;2.22;;;;;;;10.52;93.27;99406.98;1647829;86;20899;-73
2021/05/31 01:51:47;;;;;;;9.35;2.33;;;;;;;10.52;93.51;99409.72;1646013;86;21549;-74
2021/05/31 01:54:14;;;;;;;8.10;2.27;;;;;;;10.51;93.83;99406.73;1657095;84;20988;-73
2021/05/31 01:56:44;;;;;;;5.12;2.98;;;;;;;10.51;93.96;99403.18;1651249;86;21044;-74
2021/05/31 01:59:10;;;;;;;5.62;2.77;;;;;;;10.49;93.99;99402.69;1649452;85;20907;-74
2021/05/31 02:01:37;;;;;;;4.50;2.40;;;;;;;10.46;94.13;99405.50;1645083;85;21569;-74
2021/05/31 02:04:03;;;;;;;6.62;2.72;;;;;;;10.45;94.33;99401.70;1649726;84;21029;-75
2021/05/31 02:06:30;;;;;;;3.92;2.55;;;;;;;10.45;94.47;99408.00;1653225;86;21053;-74
2021/05/31 02:08:56;;;;;;;4.37;2.87;;;;;;;10.45;94.47;99401.70;1658387;86;21643;-74
2021/05/31 02:11:37;;;;;;;9.68;2.67;;;;;;;10.44;94.61;99407.76;1657580;86;20969;-74
2021/05/31 02:14:11;;;;;;;7.60;2.95;;;;;;;10.43;94.89;99404.77;1650180;86;21019;-74
2021/05/31 02:16:51;;;;;;;6.25;2.77;;;;;;;10.44;95.20;99402.27;1655607;86;20971;-75
2021/05/31 02:19:17;;;;;;;7.62;3.35;;;;;;;10.44;95.36;99406.39;1643682;86;20963;-74
2021/05/31 02:21:44;;;;;;;5.22;2.95;;;;;;;10.45;95.65;99408.00;1650590;86;21117;-74
2021/05/31 02:24:10;;;;;;;7.20;3.95;;;;;;;10.45;95.93;99405.83;1656449;86;20998;-74
2021/05/31 02:26:37;;;;;;;6.42;3.45;;;;;;;10.45;96.05;99405.83;1658273;86;21449;-74
2021/05/31 02:29:04;;;;;;;6.60;3.37;;;;;;;10.43;96.17;99410.26;1651392;86;20999;-75
2021/05/31 02:31:32;;;;;;;6.78;3.45;;;;;;;10.43;96.24;99410.26;1645406;85;21780;-74
2021/05/31 02:34:01;;;;;;;7.50;3.05;;;;;;;10.42;96.45;99404.52;1666715;85;21087;-74
2021/05/31 02:36:26;;;;;;;8.90;3.40;;;;;;;10.39;96.61;99407.94;1662378;85;21571;-73
2021/05/31 02:38:55;;;;;;;4.45;2.85;;;;;;;10.35;96.87;99408.88;1667342;86;20977;-74
2021/05/31 02:41:21;;;;;;;6.55;3.05;;;;;;;10.32;96.98;99408.95;1653944;85;20951;-76
2021/05/31 02:43:47;;;;;;;6.37;3.12;;;;;;;10.29;96.88;99407.41;1655761;86;20955;-75
2021/05/31 02:46:14;;;;;;;8.03;2.65;;;;;;;10.25;97.00;99415.46;1647367;86;21080;-75
2021/05/31 02:48:40;;;;;;;5.10;3.10;;;;;;;10.24;97.20;99406.98;1646003;85;21696;-74
2021/05/31 02:51:07;;;;;;;10.53;3.08;;;;;;;10.21;97.42;99402.12;1639355;86;21496;-74
2021/05/31 02:53:33;;;;;;;6.62;2.70;;;;;;;10.18;97.39;99403.55;1650552;85;20986;-74
2021/05/31 02:56:01;;;;;;;5.28;2.83;;;;;;;10.16;97.64;99397.56;1645767;85;20915;-74
2021/05/31 02:58:29;;;;;;;4.15;2.55;;;;;;;10.15;97.61;99398.69;1643236;86;21693;-74
2021/05/31 03:00:56;;;;;;;5.55;2.80;;;;;;;10.15;97.83;99408.85;1649158;84;21128;-74
2021/05/31 03:03:22;;;;;;;4.40;2.75;;;;;;;10.14;97.93;99405.30;1659797;86;21006;-74
2021/05/31 03:05:49;;;;;;;7.40;3.02;;;;;;;10.13;98.02;99407.80;1651467;86;21537;-74
2021/05/31 03:08:16;;;;;;;5.67;2.83;;;;;;;10.13;98.07;99408.36;1653993;85;21120;-74
2021/05/31 03:10:43;;;;;;;7.45;3.58;;;;;;;10.12;98.32;99409.48;1650345;86;21407;-75
2021/05/31 03:13:11;;;;;;;4.83;2.70;;;;;;;10.13;98.48;99409.73;1641630;86;21018;-74
2021/05/31 03:15:37;;;;;;;4.85;3.02;;;;;;;10.14;98.59;99408.60;1646063;85;21090;-75
2021/05/31 03:18:06;;;;;;;8.35;2.95;;;;;;;10.15;98.70;99404.17;1657191;85;21595;-75
2021/05/31 03:20:32;;;;;;;4.80;3.10;;;;;;;10.16;98.61;99409.91;1647317;85;21006;-75
2021/05/31 03:23:01;;;;;;;6.28;3.20;;;;;;;10.18;98.52;99409.59;1649273;86;21456;-74
2021/05/31 03:25:27;;;;;;;6.85;3.05;;;;;;;10.18;98.54;99406.28;1649413;86;20972;-75
2021/05/31 03:27:55;;;;;;;5.80;3.15;;;;;;;10.22;98.40;99413.35;1648066;86;21026;-75
2021/05/31 03:30:21;;;;;;;7.03;3.40;;;;;;;10.23;98.05;99407.55;1642648;85;21542;-75
2021/05/31 03:32:48;;;;;;;7.67;3.67;;;;;;;10.24;97.92;99404.24;1643275;85;21015;-77
2021/05/31 03:35:14;;;;;;;8.25;3.45;;;;;;;10.24;97.72;99409.16;1654453;85;21658;-74
2021/05/31 03:37:40;;;;;;;7.75;4.12;;;;;;;10.27;97.70;99415.14;1654565;86;21406;-74
2021/05/31 03:40:08;;;;;;;12.05;4.80;;;;;;;10.27;97.94;99407.72;1656241;86;20942;-74
2021/05/31 03:42:35;;;;;;;5.75;4.17;;;;;;;10.31;98.14;99414.76;1643421;86;21039;-74
2021/05/31 03:45:04;;;;;;;6.92;4.15;;;;;;;10.35;98.08;99411.06;1657527;85;21591;-75
2021/05/31 03:47:33;;;;;;;11.20;4.17;;;;;;;10.37;97.89;99414.30;1663514;85;21010;-75
2021/05/31 03:49:59;;;;;;;6.78;4.40;;;;;;;10.38;97.61;99410.43;1644310;86;20898;-75
2021/05/31 03:52:25;;;;;;;8.78;4.17;;;;;;;10.38;97.60;99409.06;1643167;86;21005;-75
2021/05/31 03:54:52;;;;;;;7.45;3.92;;;;;;;10.42;97.64;99412.75;1661775;85;21001;-75
2021/05/31 03:57:19;;;;;;;7.78;4.25;;;;;;;10.47;97.47;99417.30;1669156;83;20939;-74
2021/05/31 03:59:50;;;;;;;7.12;4.22;;;;;;;10.49;97.21;99411.73;1643729;86;21626;-75
2021/05/31 04:02:17;;;;;;;8.93;4.33;;;;;;;10.53;97.08;99411.91;1649683;84;20934;-74
2021/05/31 04:04:46;;;;;;;9.83;4.78;;;;;;;10.55;96.77;99415.95;1656289;86;21055;-74
2021/05/31 04:12:45;;;;;;;4.90;3.37;;;;;;;10.69;96.03;99412.27;1648175;86;21548;-75
2021/05/31 04:15:13;;;;;;;6.47;3.42;;;;;;;10.72;95.74;99415.75;1651903;85;20947;-76
2021/05/31 04:17:39;;;;;;;14.40;4.58;;;;;;;10.77;95.63;99415.60;1647017;86;21019;-75
2021/05/31 04:20:10;;;;;;;4.90;2.85;;;;;;;10.84;95.63;99409.08;1652813;86;20898;-75
2021/05/31 04:22:37;;;;;;;8.75;3.60;;;;;;;10.94;95.30;99412.89;1653591;86;20916;-75
2021/05/31 04:25:04;;;;;;;8.80;3.75;;;;;;;11.04;94.28;99414.48;1653895;86;21474;-75
2021/05/31 04:27:31;;;;;;;9.08;3.00;;;;;;;11.11;94.00;99414.25;1646141;86;20971;-74
2021/05/31 04:29:57;;;;;;;5.87;3.42;;;;;;;11.24;94.04;99420.16;1653547;86;21054;-74
2021/05/31 04:32:24;;;;;;;6.20;3.00;;;;;;;11.40;93.38;99419.11;1643535;87;21003;-75
2021/05/31 04:34:50;;;;;;;10.55;3.15;;;;;;;11.57;93.11;99425.13;1650060;86;21557;-75
2021/05/31 04:37:17;;;;;;;6.67;2.67;;;;;;;11.77;93.24;99419.56;1655515;86;21547;-75
2021/05/31 04:39:43;;;;;;;6.62;3.10;;;;;;;11.96;91.45;99423.33;1655820;86;21026;-75
2021/05/31 04:42:10;;;;;;;7.15;2.62;;;;;;;12.03;89.41;99423.06;1643320;86;21526;-75
2021/05/31 04:44:37;;;;;;;5.80;3.12;;;;;;;12.09;89.41;99430.57;1653700;86;20922;-75
2021/05/31 04:47:05;;;;;;;4.97;2.55;;;;;;;12.16;88.48;99419.84;1653399;86;20973;-75
2021/05/31 04:49:33;;;;;;;2.67;2.33;;;;;;;12.20;87.73;99429.05;1648086;86;21123;-75
2021/05/31 04:52:00;;;;;;;7.97;2.67;;;;;;;12.22;87.29;99431.71;1656621;86;20962;-75
2021/05/31 04:54:27;;;;;;;5.17;2.65;;;;;;;12.23;86.35;99437.45;1651529;85;21541;-74
2021/05/31 04:56:54;;;;;;;5.35;2.75;;;;;;;12.21;86.07;99431.47;1652893;86;21094;-74
2021/05/31 04:59:20;;;;;;;4.80;2.27;;;;;;;12.22;86.50;99433.09;1654458;85;20943;-74
2021/05/31 05:01:47;;;;;;;4.78;3.02;;;;;;;12.22;85.44;99437.78;1652124;85;21116;-75
2021/05/31 05:04:17;;;;;;;4.08;2.70;;;;;;;12.14;85.07;99441.38;1656168;86;21100;-74
2021/05/31 05:06:43;;;;;;;4.05;2.98;;;;;;;12.07;85.71;99446.03;1646267;86;20998;-75
2021/05/31 05:09:10;;;;;;;7.45;2.33;;;;;;;12.05;85.78;99450.25;1643508;87;20995;-74
2021/05/31 05:11:36;;;;;;;3.42;2.10;;;;;;;12.05;85.68;99449.68;1646770;86;20942;-75
2021/05/31 05:14:03;;;;;;;5.05;2.83;;;;;;;12.06;85.45;99450.48;1650057;86;21976;-76
2021/05/31 05:16:29;;;;;;;9.03;2.70;;;;;;;12.07;85.36;99458.98;1648227;86;20968;-74
2021/05/31 05:18:58;;;;;;;5.22;2.90;;;;;;;12.07;84.87;99453.48;1653869;86;20914;-76
2021/05/31 05:21:24;;;;;;;3.30;2.67;;;;;;;12.07;84.96;99454.86;1661149;85;21021;-74
2021/05/31 05:23:52;;;;;;;2.55;2.15;;;;;;;12.08;84.84;99459.22;1684295;84;20943;-74
2021/05/31 05:26:19;;;;;;;7.85;2.92;;;;;;;12.06;83.82;99457.37;1679440;84;21557;-73
2021/05/31 05:28:48;;;;;;;6.08;2.30;;;;;;;12.01;84.34;99454.78;1625193;86;20969;-76
2021/05/31 05:31:15;;;;;;;5.22;2.35;;;;;;;12.02;84.56;99457.21;1654829;86;21587;-76
2021/05/31 05:33:42;;;;;;;5.28;2.83;;;;;;;12.07;84.13;99449.35;1653810;86;20970;-74
2021/05/31 05:36:20;;;;;;;10.05;2.42;;;;;;;12.10;85.25;99440.44;1681727;83;21042;-78
2021/05/31 05:44:12;;;;;;;7.55;2.27;;;;;;;12.25;83.52;99441.26;1676239;84;21036;-77
2021/05/31 05:46:30;;;;;;;4.10;2.95;;;;;;;12.24;83.22;99442.39;1668618;84;21029;-76
2021/05/31 05:48:52;;;;;;;4.85;3.05;;;;;;;12.26;83.08;99450.32;1625030;87;20964;-73
2021/05/31 05:51:20;;;;;;;4.80;2.90;;;;;;;12.28;82.89;99439.22;1618533;85;21083;-72
2021/05/31 05:53:47;;;;;;;6.15;2.87;;;;;;;12.31;83.02;99450.95;1645122;85;21120;-71
2021/05/31 05:56:17;;;;;;;5.78;2.15;;;;;;;12.36;83.37;99449.39;1642514;85;21133;-75
2021/05/31 05:58:44;;;;;;;4.78;2.72;;;;;;;12.42;83.30;99455.52;1652486;86;21057;-75
2021/05/31 06:01:11;;;;;;;4.37;2.00;;;;;;;12.51;82.78;99459.05;1638778;84;21056;-74
2021/05/31 06:03:38;;;;;;;6.58;2.17;;;;;;;12.53;81.50;99457.59;1649662;84;21066;-79
2021/05/31 06:06:06;;;;;;;8.40;1.98;;;;;;;12.52;81.06;99456.54;1644243;84;21076;-82
2021/05/31 06:08:32;;;;;;;5.83;2.25;;;;;;;12.49;81.00;99458.01;1655917;86;21017;-79
2021/05/31 06:10:58;;;;;;;3.83;2.52;;;;;;;12.48;81.01;99459.14;1637332;84;21112;-78
2021/05/31 06:13:25;;;;;;;7.83;2.25;;;;;;;12.55;81.28;99467.70;1684631;84;20954;-79
2021/05/31 06:15:53;;;;;;;3.00;2.02;;;;;;;12.62;81.16;99461.68;1670210;84;21501;-71
2021/05/31 06:18:20;;;;;;;4.65;2.37;;;;;;;12.66;80.74;99461.83;1692089;84;20963;-71
2021/05/31 06:20:47;;;;;;;4.00;1.70;;;;;;;12.73;81.07;99462.89;1688838;85;20983;-72
2021/05/31 06:23:14;;;;;;;2.55;1.72;;;;;;;12.80;80.50;99470.64;1673754;84;21008;-72
2021/05/31 06:25:41;;;;;;;6.25;1.80;;;;;;;12.81;79.02;99455.16;1668358;84;20924;-72
2021/05/31 06:28:07;;;;;;;9.98;2.17;;;;;;;12.80;79.51;99454.11;1638790;86;21073;-72
2021/05/31 06:30:35;;;;;;;4.22;2.10;;;;;;;12.84;79.20;99458.63;1628642;86;21690;-70
2021/05/31 06:33:02;;;;;;;4.05;1.70;;;;;;;12.89;79.14;99457.63;1643012;86;21064;-69
2021/05/31 06:35:29;;;;;;;6.15;1.77;;;;;;;12.93;78.80;99459.95;1660190;86;21053;-71
2021/05/31 06:37:56;;;;;;;2.12;1.60;;;;;;;13.05;79.23;99456.48;1647609;85;21001;-72
2021/05/31 06:40:22;;;;;;;5.97;2.33;;;;;;;13.18;78.39;99453.50;1631651;86;21078;-72
2021/05/31 06:42:49;;;;;;;2.75;1.67;;;;;;;13.32;78.18;99453.78;1622979;87;21124;-73
2021/05/31 06:45:23;;;;;;;1.52;1.40;;;;;;;13.42;77.26;99457.52;1613523;87;21001;-75
2021/05/31 06:47:47;;;;;;;9.15;1.85;;;;;;;13.50;76.99;99455.26;1626997;86;21117;-71
2021/05/31 06:50:14;;;;;;;8.58;2.42;;;;;;;13.56;76.87;99458.05;1620595;87;21141;-72
2021/05/31 06:52:41;;;;;;;1.62;1.42;;;;;;;13.56;76.61;99458.05;1644673;86;21141;-73
2021/05/31 06:55:08;;;;;;;2.27;1.80;;;;;;;13.54;76.40;99456.20;1674309;84;21085;-73
2021/05/31 06:57:35;;;;;;;2.85;1.50;;;;;;;13.49;75.76;99457.78;1648160;84;21091;-74
2021/05/31 07:00:04;;;;;;;3.27;1.85;;;;;;;13.42;76.00;99458.33;1637314;85;21085;-70
2021/05/31 07:02:31;;;;;;;4.78;2.40;;;;;;;13.40;75.78;99462.56;1652757;86;21590;-73
2021/05/31 07:04:58;;;;;;;3.47;2.25;;;;;;;13.40;76.32;99461.18;1631190;86;21103;-73
2021/05/31 07:07:24;;;;;;;10.72;2.50;;;;;;;13.48;76.72;99454.79;1653454;86;21092;-74
2021/05/31 07:09:52;;;;;;;3.37;2.22;;;;;;;13.63;76.75;99452.80;1644613;86;20996;-73
2021/05/31 07:12:20;;;;;;;2.98;2.20;;;;;;;13.78;76.40;99454.13;1665277;86;21669;-74
2021/05/31 07:14:48;;;;;;;4.83;2.20;;;;;;;13.95;74.57;99454.50;1671121;84;21109;-74
2021/05/31 07:17:14;;;;;;;4.45;2.40;;;;;;;14.07;73.05;99454.54;1661428;84;21277;-75
2021/05/31 07:19:44;;;;;;;5.47;2.47;;;;;;;14.18;72.80;99452.96;1625971;86;21126;-74
2021/05/31 07:22:15;;;;;;;6.12;2.33;;;;;;;14.28;72.32;99457.23;1621596;86;20929;-76
2021/05/31 07:24:42;;;;;;;5.50;2.62;;;;;;;14.38;71.53;99462.32;1657086;83;21037;-77
2021/05/31 07:27:09;;;;;;;6.53;2.62;;;;;;;14.49;71.62;99470.39;1666056;84;21470;-75
2021/05/31 07:29:37;;;;;;;4.90;3.35;;;;;;;14.66;71.91;99456.37;1675380;85;21088;-70
2021/05/31 07:32:05;;;;;;;5.03;3.58;;;;;;;14.97;71.37;99461.89;1644122;86;20946;-71
2021/05/31 07:34:32;;;;;;;6.40;3.50;;;;;;;15.27;68.87;99456.30;1618868;87;21579;-76
2021/05/31 07:36:58;;;;;;;4.92;2.80;;;;;;;15.50;68.57;99459.36;1602706;88;20926;-72
2021/05/31 07:39:25;;;;;;;8.80;3.90;;;;;;;15.65;66.19;99462.77;1605434;88;21021;-75
2021/05/31 07:41:51;;;;;;;4.72;3.15;;;;;;;15.74;67.73;99462.04;1644252;85;21069;-73
2021/05/31 07:44:18;;;;;;;4.42;2.47;;;;;;;15.86;67.30;99457.03;1629270;86;21576;-71
2021/05/31 07:46:44;;;;;;;6.33;2.47;;;;;;;15.98;66.50;99456.17;1664979;85;21021;-70
2021/05/31 07:49:11;;;;;;;6.60;2.67;;;;;;;16.05;65.54;99463.30;1670842;84;21046;-74
2021/05/31 07:51:48;;;;;;;8.98;2.90;;;;;;;16.10;65.40;99463.03;1692949;84;21006;-72
2021/05/31 07:54:10;;;;;;;5.70;2.75;;;;;;;16.18;65.58;99459.27;1634679;86;21324;-71
2021/05/31 07:56:37;;;;;;;4.00;2.67;;;;;;;16.21;64.54;99462.72;1693678;83;20994;-73
2021/05/31 07:59:04;;;;;;;10.85;3.37;;;;;;;16.15;63.83;99470.51;1685420;84;21581;-73
2021/05/31 08:01:32;;;;;;;9.30;2.85;;;;;;;16.09;63.69;99465.00;1640559;86;20914;-72
2021/05/31 08:03:59;;;;;;;9.28;2.80;;;;;;;16.04;64.21;99461.10;1627850;87;21572;-74
2021/05/31 08:06:27;;;;;;;4.87;2.10;;;;;;;15.99;64.27;99463.32;1686085;84;21129;-73
2021/05/31 08:08:53;;;;;;;5.92;2.20;;;;;;;16.00;63.80;99463.55;1635605;86;21009;-73
2021/05/31 08:11:20;;;;;;;3.35;2.40;;;;;;;16.00;63.70;99463.55;1645888;86;20937;-73
2021/05/31 08:13:46;;;;;;;3.35;2.47;;;;;;;15.92;64.26;99465.89;1629081;86;21057;-72
2021/05/31 08:16:16;;;;;;;4.90;2.65;;;;;;;15.76;63.60;99468.03;1626457;86;21146;-73
2021/05/31 08:18:43;;;;;;;12.82;3.02;;;;;;;15.67;64.19;99466.56;1657756;85;21191;-72
2021/05/31 08:21:10;;;;;;;7.17;2.77;;;;;;;15.59;63.69;99468.34;1661515;86;20953;-71
2021/05/31 08:23:37;;;;;;;8.30;2.47;;;;;;;15.51;64.53;99466.50;1656049;86;21623;-72
2021/05/31 08:26:03;;;;;;;6.58;2.58;;;;;;;15.44;64.66;99469.05;1656561;86;21028;-72
2021/05/31 08:28:31;;;;;;;6.70;2.92;;;;;;;15.34;64.03;99478.64;1660999;85;20929;-73
2021/05/31 08:31:00;;;;;;;9.13;3.22;;;;;;;15.20;64.19;99478.20;1666898;86;21566;-72
2021/05/31 08:33:27;;;;;;;5.78;2.47;;;;;;;15.07;65.29;99480.75;1654067;86;20969;-73
2021/05/31 08:35:54;;;;;;;6.62;2.50;;;;;;;14.98;65.07;99478.71;1628421;86;20945;-73
2021/05/31 08:38:20;;;;;;;9.35;3.02;;;;;;;14.88;64.73;99484.13;1646809;85;20988;-72
2021/05/31 08:40:48;;;;;;;4.42;2.52;;;;;;;14.74;65.46;99491.95;1636962;85;20960;-73
2021/05/31 08:43:15;;;;;;;8.08;2.65;;;;;;;14.62;65.89;99488.59;1657249;86;21520;-71
2021/05/31 08:45:42;;;;;;;9.80;2.90;;;;;;;14.53;65.97;99494.22;1632510;86;21061;-72
2021/05/31 08:48:09;;;;;;;5.20;2.52;;;;;;;14.45;67.38;99493.75;1642974;86;20913;-73
2021/05/31 08:50:38;;;;;;;11.80;2.92;;;;;;;14.37;67.04;99491.89;1655700;86;21068;-79
2021/05/31 08:53:05;;;;;;;6.30;2.80;;;;;;;14.32;67.02;99494.06;1639429;84;21014;-71
2021/05/31 08:55:31;;;;;;;17.37;3.60;;;;;;;14.32;67.04;99494.87;1666078;85;21490;-72
2021/05/31 08:57:59;;;;;;;6.00;2.67;;;;;;;14.36;67.34;99486.14;1666707;85;21018;-70
2021/05/31 09:00:28;;;;;;;9.85;2.80;;;;;;;14.41;67.17;99487.88;1651470;84;21088;-71
2021/05/31 09:02:58;;;;;;;4.75;3.25;;;;;;;14.43;67.12;99489.17;1668998;83;21067;-70
2021/05/31 09:05:38;;;;;;;8.43;3.00;;;;;;;14.42;67.49;99490.32;1662461;84;21028;-70
2021/05/31 09:08:14;;;;;;;6.90;3.05;;;;;;;14.31;68.37;99497.40;1675820;83;21133;-71
2021/05/31 09:10:51;;;;;;;8.23;3.17;;;;;;;14.19;68.96;99502.31;1682785;83;21123;-71
2021/05/31 09:13:37;;;;;;;6.70;2.67;;;;;;;14.11;69.55;99498.26;1661623;84;20895;-71
2021/05/31 09:16:13;;;;;;;8.25;3.00;;;;;;;14.05;69.28;99502.38;1671349;84;21045;-76
2021/05/31 09:18:49;;;;;;;7.03;2.45;;;;;;;13.91;69.62;99500.48;1648904;86;21092;-73
2021/05/31 09:21:25;;;;;;;5.83;2.27;;;;;;;13.75;70.40;99501.12;1644655;86;21169;-75
2021/05/31 09:23:58;;;;;;;8.98;3.05;;;;;;;13.67;71.28;99497.06;1653655;85;21040;-74
2021/05/31 09:26:25;;;;;;;9.10;3.50;;;;;;;13.57;71.54;99508.50;1669619;84;21604;-70
2021/05/31 09:28:58;;;;;;;10.93;3.58;;;;;;;13.48;72.02;99502.48;1666264;83;21116;-70
2021/05/31 09:31:25;;;;;;;10.10;3.92;;;;;;;13.43;72.84;99505.44;1660094;84;21083;-70
2021/05/31 09:34:01;;;;;;;6.67;4.08;;;;;;;13.38;73.51;99510.34;1695512;83;21061;-69
2021/05/31 09:36:29;;;;;;;7.37;4.12;;;;;;;13.39;73.68;99509.20;1709500;83;21076;-73
2021/05/31 09:38:55;;;;;;;9.88;5.33;;;;;;;13.38;74.00;99507.58;1706409;83;20981;-72
2021/05/31 09:41:30;;;;;;;9.25;3.85;;;;;;;13.39;74.24;99505.06;1689411;83;22691;-71
2021/05/31 09:44:00;;;;;;;12.28;5.03;;;;;;;13.41;73.85;99506.34;1663264;84;21664;-73
2021/05/31 09:46:42;;;;;;;11.35;5.53;;;;;;;13.42;74.10;99512.66;1675664;84;21025;-72
2021/05/31 09:49:17;;;;;;;9.53;3.97;;;;;;;13.39;74.09;99510.58;1684255;84;20970;-70
2021/05/31 09:51:52;;;;;;;7.05;4.15;;;;;;;13.39;74.07;99509.20;1688589;84;21058;-73
2021/05/31 09:54:43;;;;;;;11.03;3.70;;;;;;;13.33;73.50;99515.48;1643643;84;21108;-76
2021/05/31 09:57:19;;;;;;;8.80;4.00;;;;;;;13.29;74.06;99510.97;1641764;84;21584;-76
2021/05/31 09:59:52;;;;;;;7.85;4.20;;;;;;;13.28;74.53;99514.33;1682472;84;21204;-79
2021/05/31 10:02:25;;;;;;;11.30;3.90;;;;;;;13.25;74.48;99512.80;1649594;84;20959;-76
2021/05/31 10:09:52;;;;;;;8.88;3.20;;;;;;;13.19;73.90;99517.13;1688230;84;21169;-81
2021/05/31 10:12:19;;;;;;;5.33;2.80;;;;;;;13.13;73.65;99514.30;1636890;85;21094;-77
2021/05/31 10:14:46;;;;;;;9.15;2.55;;;;;;;13.08;73.36;99523.33;1663703;84;21011;-74
2021/05/31 10:17:13;;;;;;;8.03;2.50;;;;;;;13.04;73.52;99518.24;1660739;85;21664;-76
2021/05/31 10:19:41;;;;;;;5.83;2.60;;;;;;;13.00;73.57;99523.61;1662979;85;20916;-76
2021/05/31 10:22:08;;;;;;;7.45;2.83;;;;;;;12.95;73.94;99511.40;1668635;85;21105;-75
2021/05/31 10:24:34;;;;;;;7.12;2.35;;;;;;;12.94;74.49;99515.30;1657541;85;21050;-78
2021/05/31 10:27:02;;;;;;;5.78;2.25;;;;;;;12.95;74.63;99521.05;1648628;85;20933;-69
2021/05/31 10:29:31;;;;;;;7.53;2.60;;;;;;;12.94;74.73;99521.37;1643357;84;21005;-71
2021/05/31 10:32:07;;;;;;;4.72;2.87;;;;;;;12.95;75.00;99521.05;1684949;84;21575;-72
2021/05/31 10:34:48;;;;;;;6.72;3.08;;;;;;;12.94;75.37;99524.94;1666320;84;21088;-72
2021/05/31 10:37:26;;;;;;;8.25;2.52;;;;;;;12.94;75.60;99518.62;1649292;86;21603;-73
2021/05/31 10:40:10;;;;;;;4.67;2.47;;;;;;;12.96;75.58;99519.91;1645509;86;21618;-71
2021/05/31 10:42:45;;;;;;;5.30;2.60;;;;;;;12.98;75.83;99518.20;1676988;84;21080;-71
2021/05/31 10:45:26;;;;;;;7.97;2.45;;;;;;;12.99;75.26;99521.99;1637692;85;21065;-71
2021/05/31 10:48:20;;;;;;;8.85;2.22;;;;;;;12.97;74.97;99516.58;1655966;86;21107;-71
2021/05/31 10:50:54;;;;;;;9.30;2.52;;;;;;;13.00;75.24;99518.67;1632201;86;21064;-70
2021/05/31 10:53:29;;;;;;;2.80;2.10;;;;;;;13.07;74.98;99521.14;1644887;85;21079;-69
2021/05/31 10:55:58;;;;;;;5.03;2.50;;;;;;;13.12;75.05;99527.03;1634919;86;21112;-70
2021/05/31 10:58:40;;;;;;;8.40;2.58;;;;;;;13.16;74.96;99521.94;1651463;85;21659;-73
2021/05/31 11:01:10;;;;;;;4.55;2.30;;;;;;;13.19;73.94;99517.13;1644825;86;21064;-73
2021/05/31 11:03:48;;;;;;;7.17;2.50;;;;;;;13.21;73.57;99518.98;1650951;84;21639;-73
2021/05/31 11:06:18;;;;;;;4.33;2.33;;;;;;;13.25;74.17;99522.45;1671416;84;21097;-69
2021/05/31 11:08:54;;;;;;;3.65;2.25;;;;;;;13.31;74.92;99525.22;1685871;84;21066;-70
2021/05/31 11:11:32;;;;;;;4.17;2.50;;;;;;;13.37;74.07;99525.27;1674261;84;21033;-69
2021/05/31 11:14:01;;;;;;;5.87;2.77;;;;;;;13.43;74.16;99523.93;1657586;84;20965;-70
2021/05/31 11:16:27;;;;;;;4.75;2.20;;;;;;;13.51;73.59;99521.11;1667497;83;21146;-70
2021/05/31 11:19:00;;;;;;;4.28;2.20;;;;;;;13.59;72.41;99518.63;1639218;84;21171;-70
2021/05/31 11:21:41;;;;;;;4.37;1.80;;;;;;;13.66;72.35;99524.41;1668483;81;20997;-70
2021/05/31 11:24:12;;;;;;;5.58;2.27;;;;;;;13.70;70.64;99518.45;1677460;83;21076;-71
2021/05/31 11:26:41;;;;;;;4.92;2.10;;;;;;;13.70;72.01;99513.75;1668761;83;20981;-70
2021/05/31 11:29:10;;;;;;;2.50;1.95;;;;;;;13.78;72.45;99521.72;1670295;84;21039;-70
2021/05/31 11:31:38;;;;;;;4.10;2.02;;;;;;;13.90;72.91;99523.13;1655599;83;21660;-70
2021/05/31 11:34:05;;;;;;;4.58;1.85;;;;;;;14.04;71.61;99520.08;1645451;84;21124;-70
2021/05/31 11:36:38;;;;;;;4.95;1.95;;;;;;;14.14;70.38;99516.33;1664565;85;21009;-70
2021/05/31 11:39:10;;;;;;;5.10;1.57;;;;;;;14.25;69.70;99522.80;1653071;85;21032;-70
2021/05/31 11:41:48;;;;;;;3.12;1.70;;;;;;;14.36;69.45;99514.33;1658065;85;21704;-69
2021/05/31 11:44:31;;;;;;;5.05;1.55;;;;;;;14.51;68.75;99517.23;1672649;84;21610;-69
2021/05/31 11:47:03;;;;;;;3.92;1.65;;;;;;;14.69;67.52;99509.55;1651783;85;21026;-70
2021/05/31 11:49:37;;;;;;;2.72;1.90;;;;;;;14.86;64.88;99519.59;1642281;86;20973;-69
2021/05/31 11:52:09;;;;;;;4.40;1.70;;;;;;;14.95;64.48;99513.37;1657191;86;21067;-68
2021/05/31 11:54:38;;;;;;;7.10;1.60;;;;;;;15.07;65.43;99517.49;1666274;84;21016;-68
2021/05/31 11:57:07;;;;;;;3.70;1.67;;;;;;;15.26;64.85;99511.95;1666602;83;21760;-69